Time;durP1;ratioP1;P1;durP2;ratioP2;P2;SDS_P1;SDS_P2;PMS_P1;PMS_P2;Temp;Humidity;BMP_temperature;BMP_pressure;BME280_temperature;BME280_humidity;BME280_pressure;Samples;Min_cycle;Max_cycle;Signal;HPM_P1;HPM_P2
2023/07/27 00:01:16;;;;;;;6.67;3.53;;;12.40;1.00;;;;;;6217569;23;20185;-94
2023/07/27 00:03:42;;;;;;;7.37;3.63;;;12.40;1.00;;;;;;6217738;23;20183;-95
2023/07/27 00:06:10;;;;;;;5.30;3.63;;;12.40;1.00;;;;;;6217622;23;20648;-94
2023/07/27 00:08:37;;;;;;;6.33;3.50;;;12.40;1.00;;;;;;6217759;23;20259;-93
2023/07/27 00:11:04;;;;;;;5.80;3.73;;;12.40;1.00;;;;;;6217235;23;20509;-94
2023/07/27 00:13:30;;;;;;;4.47;3.40;;;12.30;1.00;;;;;;6217563;23;20165;-94
2023/07/27 00:15:57;;;;;;;5.07;3.43;;;12.30;1.00;;;;;;6217317;23;20553;-94
2023/07/27 00:18:23;;;;;;;6.53;3.80;;;12.30;1.00;;;;;;6217750;23;20172;-95
2023/07/27 00:20:50;;;;;;;6.13;3.90;;;12.30;1.00;;;;;;6217628;23;20171;-93
2023/07/27 00:23:18;;;;;;;5.70;3.40;;;12.20;1.00;;;;;;6217930;23;20169;-95
2023/07/27 00:25:45;;;;;;;6.00;3.40;;;12.20;1.00;;;;;;6217479;23;20183;-93
2023/07/27 00:28:12;;;;;;;5.10;3.57;;;12.20;1.00;;;;;;6217885;23;20175;-93
2023/07/27 00:30:39;;;;;;;5.23;3.30;;;12.20;1.00;;;;;;6217322;23;20708;-94
2023/07/27 00:33:05;;;;;;;5.47;3.13;;;12.20;1.00;;;;;;6217148;23;20195;-94
2023/07/27 00:35:32;;;;;;;4.70;3.70;;;12.10;1.00;;;;;;6217697;23;20265;-94
2023/07/27 00:37:59;;;;;;;6.17;3.73;;;12.10;1.00;;;;;;6218349;23;20254;-95
2023/07/27 00:40:27;;;;;;;5.63;3.30;;;12.20;1.00;;;;;;6216958;23;20173;-94
2023/07/27 00:42:54;;;;;;;6.47;3.73;;;12.10;1.00;;;;;;6217727;23;20188;-93
2023/07/27 00:45:21;;;;;;;5.33;4.00;;;12.20;1.00;;;;;;6217627;23;20180;-95
2023/07/27 00:47:48;;;;;;;5.07;3.30;;;12.20;1.00;;;;;;6217245;23;20169;-93
2023/07/27 00:50:15;;;;;;;4.43;3.50;;;12.20;1.00;;;;;;6217512;23;20186;-93
2023/07/27 00:52:42;;;;;;;6.47;3.90;;;12.30;1.00;;;;;;6217522;23;20247;-95
2023/07/27 00:55:09;;;;;;;3.70;3.30;;;12.40;1.00;;;;;;6216725;23;20166;-93
2023/07/27 00:57:37;;;;;;;6.40;3.53;;;12.50;1.00;;;;;;6217274;23;20175;-93
2023/07/27 01:00:05;;;;;;;5.27;3.53;;;12.60;1.00;;;;;;6217573;23;20180;-94
2023/07/27 01:02:32;;;;;;;5.87;3.60;;;12.50;1.00;;;;;;6217156;23;20191;-93
2023/07/27 01:04:59;;;;;;;4.63;3.57;;;12.50;99.90;;;;;;6217569;23;20207;-94
2023/07/27 01:07:25;;;;;;;6.37;4.00;;;12.40;99.90;;;;;;6216605;23;20175;-94
2023/07/27 01:09:52;;;;;;;6.30;4.30;;;12.30;1.00;;;;;;6217115;23;20177;-94
2023/07/27 01:12:26;;;;;;;7.70;4.23;;;12.20;1.00;;;;;;6216961;23;20172;-94
2023/07/27 01:15:04;;;;;;;8.73;4.30;;;12.20;1.00;;;;;;6217597;23;20184;-94
2023/07/27 01:17:36;;;;;;;9.33;4.70;;;12.10;1.00;;;;;;6217246;23;20258;-93
2023/07/27 01:20:20;;;;;;;6.07;4.37;;;12.10;1.00;;;;;;6217225;23;20161;-95
2023/07/27 01:23:08;;;;;;;5.97;4.20;;;12.10;1.00;;;;;;6216999;23;20204;-95
2023/07/27 01:26:00;;;;;;;6.00;4.50;;;12.00;1.00;;;;;;6217408;23;20810;-94
2023/07/27 01:28:43;;;;;;;8.23;5.10;;;12.00;1.00;;;;;;6217217;23;20177;-93
2023/07/27 01:31:19;;;;;;;9.00;5.20;;;11.90;1.00;;;;;;6217333;23;20160;-94
2023/07/27 01:33:50;;;;;;;7.77;4.87;;;11.80;1.00;;;;;;6217245;23;20177;-94
2023/07/27 01:36:21;;;;;;;6.97;5.23;;;11.80;1.00;;;;;;6217037;23;20664;-94
2023/07/27 01:38:50;;;;;;;7.93;5.33;;;11.80;1.00;;;;;;6217035;23;20159;-94
2023/07/27 01:41:18;;;;;;;7.23;4.77;;;11.80;1.00;;;;;;6216793;23;20196;-94
2023/07/27 01:43:46;;;;;;;8.27;5.47;;;11.70;1.00;;;;;;6217203;23;20178;-95
2023/07/27 01:46:15;;;;;;;9.87;5.30;;;11.70;1.00;;;;;;6217023;23;20172;-95
2023/07/27 01:48:43;;;;;;;8.70;5.80;;;11.70;1.00;;;;;;6217347;23;20171;-94
2023/07/27 01:51:11;;;;;;;8.80;5.07;;;11.70;1.00;;;;;;6216904;23;20258;-94
2023/07/27 01:53:41;;;;;;;8.40;4.77;;;11.70;1.00;;;;;;6216710;23;20626;-94
2023/07/27 01:56:08;;;;;;;8.00;4.97;;;11.60;1.00;;;;;;6216377;23;20171;-95
2023/07/27 01:58:36;;;;;;;8.73;5.57;;;11.70;1.00;;;;;;6216870;23;20179;-94
2023/07/27 02:01:04;;;;;;;7.07;4.67;;;11.70;1.00;;;;;;6216945;23;20227;-94
2023/07/27 02:03:33;;;;;;;8.40;5.27;;;11.70;1.00;;;;;;6216342;23;20215;-94
2023/07/27 02:06:00;;;;;;;7.60;5.30;;;11.70;1.00;;;;;;6216596;23;20177;-93
2023/07/27 02:08:27;;;;;;;8.27;5.60;;;11.60;1.00;;;;;;6216053;23;20167;-94
2023/07/27 02:10:58;;;;;;;6.47;4.97;;;11.60;1.00;;;;;;6218492;23;20491;-94
2023/07/27 02:13:31;;;;;;;8.60;5.43;;;11.60;1.00;;;;;;6219076;23;20153;-94
2023/07/27 02:16:05;;;;;;;7.27;5.27;;;11.60;1.00;;;;;;6218865;23;20163;-95
2023/07/27 02:18:35;;;;;;;7.20;5.33;;;11.60;1.00;;;;;;6219338;23;20154;-94
2023/07/27 02:21:04;;;;;;;9.20;5.30;;;11.60;1.00;;;;;;6218184;23;20171;-94
2023/07/27 02:23:32;;;;;;;7.63;5.00;;;11.60;1.00;;;;;;6219246;23;20190;-93
2023/07/27 02:25:59;;;;;;;7.10;4.93;;;11.60;1.00;;;;;;6218837;23;20178;-96
2023/07/27 02:28:28;;;;;;;9.73;5.10;;;11.60;24.40;;;;;;6218795;23;20178;-94
2023/07/27 02:30:55;;;;;;;7.13;4.90;;;11.60;70.30;;;;;;6218909;23;20169;-95
2023/07/27 02:33:22;;;;;;;6.40;5.30;;;11.60;59.40;;;;;;6218624;23;20166;-95
2023/07/27 02:35:50;;;;;;;7.53;5.57;;;11.60;50.30;;;;;;6218303;23;20172;-95
2023/07/27 02:38:17;;;;;;;8.20;5.33;;;11.50;69.30;;;;;;6218602;23;20170;-93
2023/07/27 02:40:44;;;;;;;7.37;5.10;;;11.50;60.00;;;;;;6218599;23;20218;-95
2023/07/27 02:43:11;;;;;;;6.17;4.77;;;11.50;58.60;;;;;;6218523;23;20185;-95
2023/07/27 02:45:37;;;;;;;8.40;4.90;;;11.40;78.60;;;;;;6217922;23;20623;-95
2023/07/27 02:48:04;;;;;;;5.83;4.47;;;11.40;62.20;;;;;;6218595;23;20169;-94
2023/07/27 02:50:31;;;;;;;6.07;4.63;;;11.40;84.10;;;;;;6218558;23;20181;-93
2023/07/27 02:52:59;;;;;;;9.43;4.60;;;11.40;99.80;;;;;;6218630;23;20507;-94
2023/07/27 02:55:26;;;;;;;7.37;4.83;;;11.30;99.90;;;;;;6218742;23;20177;-94
2023/07/27 02:57:53;;;;;;;5.83;4.77;;;11.30;99.90;;;;;;6218639;23;20175;-94
2023/07/27 03:00:20;;;;;;;5.50;4.23;;;11.30;99.90;;;;;;6218384;23;20656;-94
2023/07/27 03:02:47;;;;;;;8.17;4.60;;;11.30;99.90;;;;;;6218329;23;20682;-95
2023/07/27 03:05:14;;;;;;;7.00;4.60;;;11.20;99.90;;;;;;6218155;23;20174;-95
2023/07/27 03:07:41;;;;;;;6.50;4.53;;;11.20;99.90;;;;;;6218073;23;20610;-96
2023/07/27 03:10:10;;;;;;;9.00;4.50;;;11.30;99.90;;;;;;6218438;23;20182;-94
2023/07/27 03:12:36;;;;;;;6.07;4.33;;;11.20;99.90;;;;;;6218909;23;20170;-94
2023/07/27 03:15:04;;;;;;;8.80;4.60;;;11.20;99.90;;;;;;6218283;23;20163;-94
2023/07/27 03:17:31;;;;;;;6.23;4.47;;;11.30;99.90;;;;;;6218550;23;20175;-93
2023/07/27 03:19:58;;;;;;;6.47;4.33;;;11.20;99.90;;;;;;6217709;23;20202;-93
2023/07/27 03:22:25;;;;;;;6.40;4.33;;;11.30;99.90;;;;;;6218508;23;20190;-94
2023/07/27 03:24:51;;;;;;;7.67;4.83;;;11.30;99.90;;;;;;6218288;23;20226;-93
2023/07/27 03:27:19;;;;;;;6.60;4.40;;;11.30;99.90;;;;;;6218536;23;20178;-95
2023/07/27 03:29:46;;;;;;;5.43;4.50;;;11.30;99.90;;;;;;6218460;23;20622;-94
2023/07/27 03:32:13;;;;;;;5.63;4.13;;;11.40;99.90;;;;;;6218365;23;20171;-94
2023/07/27 03:34:40;;;;;;;6.43;4.50;;;11.40;99.90;;;;;;6218149;23;20252;-94
2023/07/27 03:37:07;;;;;;;9.07;4.77;;;11.40;99.90;;;;;;6217995;23;20177;-93
2023/07/27 03:39:33;;;;;;;5.77;4.43;;;11.50;99.90;;;;;;6218240;23;20246;-94
2023/07/27 03:42:00;;;;;;;5.73;4.63;;;11.50;99.90;;;;;;6217841;23;20680;-95
2023/07/27 03:44:28;;;;;;;5.77;4.60;;;11.50;99.90;;;;;;6218091;23;20167;-95
2023/07/27 03:46:55;;;;;;;6.40;4.80;;;11.60;99.90;;;;;;6217928;23;20195;-93
2023/07/27 03:49:22;;;;;;;5.37;4.57;;;11.60;99.90;;;;;;6217571;23;20175;-94
2023/07/27 03:51:49;;;;;;;7.30;4.80;;;11.70;99.90;;;;;;6218269;23;20178;-94
2023/07/27 03:54:15;;;;;;;17.47;6.43;;;11.70;99.90;;;;;;6217578;23;20175;-93
2023/07/27 03:56:42;;;;;;;5.70;4.57;;;11.80;99.90;;;;;;6217563;23;20176;-93
2023/07/27 03:59:09;;;;;;;6.87;5.40;;;12.20;1.00;;;;;;6218078;23;20180;-95
2023/07/27 04:01:37;;;;;;;6.13;4.10;;;12.70;1.00;;;;;;6217794;23;20207;-94
2023/07/27 04:04:04;;;;;;;4.80;3.50;;;13.30;1.00;;;;;;6217758;23;20190;-95
2023/07/27 04:06:31;;;;;;;4.43;3.50;;;13.90;1.00;;;;;;6217799;23;20163;-95
2023/07/27 04:08:58;;;;;;;6.00;3.40;;;14.50;99.90;;;;;;6217959;23;20182;-94
2023/07/27 04:11:25;;;;;;;3.50;3.00;;;14.90;1.00;;;;;;6217560;23;20260;-96
2023/07/27 04:13:51;;;;;;;3.13;2.80;;;15.30;1.00;;;;;;6218169;23;20168;-95
2023/07/27 04:16:18;;;;;;;4.77;3.07;;;15.60;99.90;;;;;;6217702;23;20200;-96
2023/07/27 04:18:46;;;;;;;5.97;2.80;;;16.00;1.00;;;;;;6217990;23;20255;-96
2023/07/27 04:21:13;;;;;;;7.30;3.13;;;16.30;1.00;;;;;;6217695;23;20240;-96
2023/07/27 04:23:40;;;;;;;4.30;2.40;;;16.60;99.90;;;;;;6217884;23;20278;-95
2023/07/27 04:26:07;;;;;;;3.47;2.42;;;16.90;1.00;;;;;;6217109;23;20170;-95
2023/07/27 04:28:34;;;;;;;5.93;2.70;;;17.20;99.90;;;;;;6217673;23;20171;-95
2023/07/27 04:31:00;;;;;;;3.15;2.42;;;17.40;1.00;;;;;;6217456;23;20211;-95
2023/07/27 04:33:27;;;;;;;5.20;2.45;;;17.60;1.00;;;;;;6217263;23;20255;-95
2023/07/27 04:35:57;;;;;;;4.15;2.67;;;17.80;99.90;;;;;;6217797;23;20263;-95
2023/07/27 04:38:24;;;;;;;7.72;2.92;;;18.00;90.00;;;;;;6217348;23;20248;-96
2023/07/27 04:40:51;;;;;;;5.18;2.50;;;18.20;1.00;;;;;;6217017;23;20170;-95
2023/07/27 04:43:18;;;;;;;4.45;2.72;;;18.50;1.00;;;;;;6217574;23;20189;-95
2023/07/27 04:45:44;;;;;;;6.13;2.22;;;18.80;99.90;;;;;;6217562;23;20179;-96
2023/07/27 04:48:11;;;;;;;3.38;2.58;;;19.00;35.00;;;;;;6217499;23;20169;-96
2023/07/27 04:50:38;;;;;;;4.00;2.40;;;19.20;1.00;;;;;;6217090;23;20069;-95
2023/07/27 04:53:06;;;;;;;3.97;2.40;;;19.50;1.00;;;;;;6217086;23;20169;-94
2023/07/27 04:55:33;;;;;;;4.93;2.30;;;19.70;99.90;;;;;;6217189;23;20165;-96
2023/07/27 04:58:00;;;;;;;6.97;2.63;;;20.00;99.90;;;;;;6216902;23;20172;-95
2023/07/27 05:00:27;;;;;;;5.57;2.50;;;20.00;1.00;;;;;;6217259;23;20175;-96
2023/07/27 05:02:54;;;;;;;9.05;3.30;;;19.80;1.00;;;;;;6204507;23;20216;-95
2023/07/27 05:05:20;;;;;;;18.30;4.10;;;19.60;1.00;;;;;;6217619;23;20506;-94
2023/07/27 05:07:47;;;;;;;5.60;2.53;;;19.40;1.00;;;;;;6217095;23;20199;-95
2023/07/27 05:10:15;;;;;;;5.50;2.97;;;19.30;1.00;;;;;;6217482;23;20251;-95
2023/07/27 05:12:42;;;;;;;3.80;2.55;;;18.90;1.00;;;;;;6217213;23;20538;-94
2023/07/27 05:15:09;;;;;;;12.15;3.67;;;18.50;1.00;;;;;;6217345;23;20175;-95
2023/07/27 05:17:36;;;;;;;7.40;3.25;;;18.10;99.90;;;;;;6217383;23;20212;-95
2023/07/27 05:20:03;;;;;;;3.53;2.72;;;17.80;1.00;;;;;;6217145;23;20169;-94
2023/07/27 05:22:30;;;;;;;5.13;2.63;;;17.40;16.30;;;;;;6216893;23;20211;-95
2023/07/27 05:24:57;;;;;;;6.88;2.90;;;17.20;99.90;;;;;;6217632;23;20212;-96
2023/07/27 05:27:25;;;;;;;5.90;3.38;;;17.00;1.00;;;;;;6216864;23;20240;-95
2023/07/27 05:29:52;;;;;;;3.25;2.67;;;16.80;1.00;;;;;;6217450;23;20175;-94
2023/07/27 05:32:19;;;;;;;3.63;3.13;;;16.70;1.00;;;;;;6217140;23;20182;-94
2023/07/27 05:34:46;;;;;;;5.95;3.25;;;16.60;99.90;;;;;;6217218;23;20172;-95
2023/07/27 05:37:12;;;;;;;4.75;2.83;;;16.50;99.90;;;;;;6217224;23;20281;-95
2023/07/27 05:39:39;;;;;;;3.65;2.92;;;16.40;99.90;;;;;;6217019;23;20184;-95
2023/07/27 05:42:06;;;;;;;6.78;3.22;;;16.30;1.00;;;;;;6216752;23;20200;-94
2023/07/27 05:44:34;;;;;;;3.40;2.90;;;16.30;1.00;;;;;;6216372;23;20666;-95
2023/07/27 05:47:04;;;;;;;3.42;3.08;;;16.20;1.00;;;;;;6219284;23;20172;-94
2023/07/27 05:49:32;;;;;;;4.55;2.60;;;16.10;1.00;;;;;;6219162;23;20148;-94
2023/07/27 05:51:58;;;;;;;4.43;3.20;;;16.10;1.00;;;;;;6219318;23;20186;-95
2023/07/27 05:54:25;;;;;;;3.75;3.20;;;16.10;1.00;;;;;;6219378;23;20168;-94
2023/07/27 05:56:52;;;;;;;8.77;3.30;;;16.10;1.00;;;;;;6218972;23;20615;-94
2023/07/27 05:59:19;;;;;;;6.38;3.28;;;16.20;1.00;;;;;;6218971;23;20174;-94
2023/07/27 06:01:47;;;;;;;3.58;2.88;;;16.20;15.90;;;;;;6218726;23;20172;-95
2023/07/27 06:04:14;;;;;;;3.28;2.97;;;16.20;1.00;;;;;;6218890;23;20551;-92
2023/07/27 06:06:44;;;;;;;6.00;2.90;;;16.30;16.40;;;;;;6219097;23;20176;-94
2023/07/27 06:09:11;;;;;;;4.57;2.40;;;16.30;1.00;;;;;;6219160;23;20156;-95
2023/07/27 06:11:38;;;;;;;6.78;3.65;;;16.40;1.00;;;;;;6219011;23;20172;-94
2023/07/27 06:14:05;;;;;;;2.75;2.53;;;16.40;8.00;;;;;;6218492;23;20168;-95
2023/07/27 06:16:32;;;;;;;5.53;2.65;;;16.50;1.00;;;;;;6219202;23;20203;-94
2023/07/27 06:19:00;;;;;;;10.68;3.55;;;16.50;1.00;;;;;;6219459;23;20487;-94
2023/07/27 06:21:27;;;;;;;5.57;4.97;;;16.60;1.00;;;;;;6219134;23;20183;-94
2023/07/27 06:23:53;;;;;;;7.97;6.22;;;16.70;1.00;;;;;;6219293;23;20270;-94
2023/07/27 06:26:20;;;;;;;4.07;2.30;;;16.80;1.00;;;;;;6219167;23;20173;-93
2023/07/27 06:28:47;;;;;;;3.30;3.00;;;16.90;1.00;;;;;;6218893;23;20172;-95
2023/07/27 06:31:14;;;;;;;3.47;2.65;;;16.90;1.00;;;;;;6218800;23;20172;-93
2023/07/27 06:33:41;;;;;;;4.82;2.20;;;17.00;1.00;;;;;;6218627;23;20167;-94
2023/07/27 06:36:11;;;;;;;7.13;3.13;;;17.10;1.00;;;;;;6218484;23;20233;-94
2023/07/27 06:38:38;;;;;;;4.80;2.55;;;17.10;1.00;;;;;;6218781;23;20160;-93
2023/07/27 06:41:05;;;;;;;2.65;2.35;;;17.30;99.90;;;;;;6217799;23;20284;-93
2023/07/27 06:43:32;;;;;;;4.30;2.13;;;17.40;99.90;;;;;;6218355;23;20185;-94
2023/07/27 06:45:59;;;;;;;3.25;2.00;;;17.50;37.10;;;;;;6218934;23;20515;-93
2023/07/27 06:48:26;;;;;;;2.47;2.25;;;17.60;1.00;;;;;;6218253;23;20177;-94
2023/07/27 06:50:53;;;;;;;4.55;1.60;;;17.60;1.00;;;;;;6218388;23;20169;-94
2023/07/27 06:53:21;;;;;;;2.75;1.83;;;17.70;1.00;;;;;;6218393;23;20197;-93
2023/07/27 06:55:48;;;;;;;4.18;2.20;;;17.80;1.00;;;;;;6218236;23;20223;-94
2023/07/27 06:58:15;;;;;;;2.45;1.63;;;17.90;1.00;;;;;;6218354;23;20634;-96
2023/07/27 07:00:42;;;;;;;2.63;1.33;;;18.00;99.90;;;;;;6218601;23;20180;-94
2023/07/27 07:03:09;;;;;;;2.83;1.73;;;18.10;99.90;;;;;;6218760;23;20194;-94
2023/07/27 07:05:36;;;;;;;4.22;1.25;;;18.20;16.00;;;;;;6218100;23;25068;-94
2023/07/27 07:08:02;;;;;;;1.77;1.38;;;18.30;1.00;;;;;;6218571;23;20170;-95
2023/07/27 07:10:31;;;;;;;4.47;1.70;;;18.30;1.00;;;;;;6218109;23;20200;-94
2023/07/27 07:12:58;;;;;;;2.53;1.70;;;18.40;1.00;;;;;;6218570;23;20193;-95
2023/07/27 07:15:25;;;;;;;8.50;7.53;;;18.60;99.90;;;;;;6218290;23;20223;-94
2023/07/27 07:17:52;;;;;;;1.92;1.60;;;18.70;99.90;;;;;;6218215;23;20625;-94
2023/07/27 07:20:19;;;;;;;3.95;2.67;;;18.70;1.00;;;;;;6218478;23;20236;-95
2023/07/27 07:22:46;;;;;;;3.22;1.80;;;18.80;1.00;;;;;;6217970;23;20208;-94
2023/07/27 07:25:12;;;;;;;3.85;2.22;;;18.90;1.00;;;;;;6218267;23;20276;-94
2023/07/27 07:27:41;;;;;;;1.80;1.52;;;19.00;1.00;;;;;;6218125;23;20169;-95
2023/07/27 07:30:09;;;;;;;2.30;1.60;;;19.10;1.00;;;;;;6217713;23;20251;-94
2023/07/27 07:32:36;;;;;;;21.35;7.40;;;19.20;1.00;;;;;;6218350;23;20175;-95
2023/07/27 07:35:03;;;;;;;2.80;1.60;;;19.30;1.00;;;;;;6218348;23;20169;-95
2023/07/27 07:37:30;;;;;;;3.15;1.90;;;19.40;99.90;;;;;;6218328;23;20208;-96
2023/07/27 07:39:57;;;;;;;2.55;1.40;;;19.50;99.90;;;;;;6217879;23;20176;-95
2023/07/27 07:42:24;;;;;;;1.73;1.55;;;19.60;99.90;;;;;;6217550;23;20199;-95
2023/07/27 07:44:52;;;;;;;2.47;1.40;;;19.70;1.00;;;;;;6218159;23;20196;-96
2023/07/27 07:47:19;;;;;;;1.95;1.30;;;19.80;1.00;;;;;;6217923;23;20173;-95
2023/07/27 07:49:46;;;;;;;5.30;1.73;;;20.00;1.00;;;;;;6218306;23;20176;-95
2023/07/27 07:52:13;;;;;;;5.38;1.60;;;20.20;1.00;;;;;;6218495;23;20176;-95
2023/07/27 07:54:40;;;;;;;1.98;1.55;;;20.40;99.90;;;;;;6217830;23;20165;-95
2023/07/27 07:57:07;;;;;;;2.30;2.00;;;20.50;99.90;;;;;;6218300;23;20169;-96
2023/07/27 07:59:33;;;;;;;3.70;2.20;;;20.70;99.90;;;;;;6218130;23;20260;-96
2023/07/27 08:02:02;;;;;;;2.00;1.80;;;20.70;56.20;;;;;;6217712;23;20239;-96
2023/07/27 08:04:30;;;;;;;2.30;1.80;;;20.60;1.00;;;;;;6217884;23;20184;-95
2023/07/27 08:06:57;;;;;;;1.92;1.52;;;20.60;16.80;;;;;;6217943;23;20175;-96
2023/07/27 08:09:24;;;;;;;2.22;1.40;;;20.60;88.90;;;;;;6217262;23;20169;-94
2023/07/27 08:11:52;;;;;;;4.80;1.83;;;20.80;7.80;;;;;;6217745;23;20173;-96
2023/07/27 08:14:19;;;;;;;3.42;1.50;;;20.90;1.00;;;;;;6218019;23;20165;-95
2023/07/27 08:16:46;;;;;;;2.70;1.60;;;21.00;1.00;;;;;;6217662;23;20165;-94
2023/07/27 08:19:14;;;;;;;2.25;1.80;;;21.10;1.00;;;;;;6217464;23;20164;-94
2023/07/27 08:21:41;;;;;;;2.83;1.67;;;21.30;1.00;;;;;;6217422;23;20173;-95
2023/07/27 08:24:08;;;;;;;2.40;1.75;;;21.50;1.00;;;;;;6217220;23;20263;-95
2023/07/27 08:26:35;;;;;;;3.95;1.80;;;21.80;1.00;;;;;;6217811;23;20199;-95
2023/07/27 08:29:01;;;;;;;2.65;1.70;;;21.90;99.90;;;;;;6218149;23;20209;-95
2023/07/27 08:31:28;;;;;;;13.18;7.35;;;22.20;99.90;;;;;;6217266;23;20177;-95
2023/07/27 08:33:55;;;;;;;4.35;2.03;;;22.20;99.90;;;;;;6217129;23;20173;-95
2023/07/27 08:36:23;;;;;;;3.53;1.92;;;22.20;99.90;;;;;;6217147;23;20173;-95
2023/07/27 08:38:50;;;;;;;2.75;1.77;;;22.20;88.50;;;;;;6217603;23;20179;-95
2023/07/27 08:41:17;;;;;;;7.05;1.67;;;22.30;81.00;;;;;;6217088;23;20691;-95
2023/07/27 08:43:45;;;;;;;4.78;2.63;;;22.40;55.80;;;;;;6217281;23;20251;-95
2023/07/27 08:46:12;;;;;;;2.28;2.00;;;22.50;13.70;;;;;;6217699;23;20181;-96
2023/07/27 08:48:39;;;;;;;3.33;1.50;;;22.60;1.00;;;;;;6218195;23;20506;-95
2023/07/27 08:51:06;;;;;;;2.00;1.55;;;22.70;1.00;;;;;;6217195;23;20224;-94
2023/07/27 08:53:34;;;;;;;3.17;1.70;;;22.80;1.00;;;;;;6217082;23;20173;-96
2023/07/27 08:56:01;;;;;;;2.05;1.52;;;22.90;1.00;;;;;;6217543;23;20252;-94
2023/07/27 08:58:29;;;;;;;5.57;2.35;;;22.90;1.00;;;;;;6217549;23;20203;-95
2023/07/27 09:00:56;;;;;;;4.78;1.70;;;23.10;1.00;;;;;;6216810;23;20169;-94
2023/07/27 09:03:23;;;;;;;5.45;1.73;;;23.40;1.00;;;;;;6217251;23;20180;-94
2023/07/27 09:05:58;;;;;;;2.58;1.70;;;23.70;1.00;;;;;;6217391;23;20556;-94
2023/07/27 09:08:28;;;;;;;2.13;1.90;;;23.90;1.00;;;;;;6216943;23;20157;-95
2023/07/27 09:11:05;;;;;;;2.38;1.75;;;24.10;1.00;;;;;;6216922;23;20173;-94
2023/07/27 09:13:33;;;;;;;4.78;1.60;;;24.20;1.00;;;;;;6217378;23;20160;-95
2023/07/27 09:16:01;;;;;;;1.75;1.50;;;24.40;1.00;;;;;;6217190;23;20173;-94
2023/07/27 09:18:33;;;;;;;4.20;2.05;;;24.50;1.00;;;;;;6217454;23;20175;-94
2023/07/27 09:21:07;;;;;;;1.45;1.30;;;24.40;1.00;;;;;;6216991;23;20618;-94
2023/07/27 09:23:34;;;;;;;2.33;2.08;;;24.60;1.00;;;;;;6216971;23;20164;-94
2023/07/27 09:26:02;;;;;;;1.80;1.52;;;24.60;1.00;;;;;;6217332;23;20175;-93
2023/07/27 09:28:29;;;;;;;1.85;1.40;;;24.60;1.00;;;;;;6217225;23;20180;-94
2023/07/27 09:30:59;;;;;;;2.40;1.40;;;24.60;1.00;;;;;;6216997;23;20169;-94
2023/07/27 09:33:26;;;;;;;2.85;1.50;;;24.80;1.00;;;;;;6216882;23;20701;-94
2023/07/27 09:35:54;;;;;;;6.22;1.60;;;24.90;1.00;;;;;;6216437;23;20645;-94
2023/07/27 09:38:24;;;;;;;4.50;1.73;;;24.90;1.00;;;;;;6216744;23;20189;-94
2023/07/27 09:40:52;;;;;;;2.13;1.20;;;24.70;1.00;;;;;;6216364;23;20164;-94
2023/07/27 09:43:22;;;;;;;1.95;1.35;;;24.40;1.00;;;;;;6217301;23;20160;-94
2023/07/27 09:45:55;;;;;;;4.65;1.33;;;24.10;1.00;;;;;;6216558;23;20661;-94
2023/07/27 09:48:22;;;;;;;3.20;1.50;;;24.10;1.00;;;;;;6217649;23;20611;-94
2023/07/27 09:50:49;;;;;;;3.28;1.80;;;24.10;1.00;;;;;;6217144;23;20225;-95
2023/07/27 09:53:19;;;;;;;2.90;1.40;;;24.10;1.00;;;;;;6217006;23;20168;-93
2023/07/27 09:55:46;;;;;;;11.07;3.92;;;24.30;1.00;;;;;;6217048;23;20176;-93
2023/07/27 09:58:14;;;;;;;3.88;1.63;;;24.50;1.00;;;;;;6217209;23;20180;-94
2023/07/27 10:00:42;;;;;;;4.22;2.20;;;24.70;1.00;;;;;;6217008;23;20503;-95
2023/07/27 10:03:09;;;;;;;2.85;1.60;;;24.70;1.00;;;;;;6216851;23;20218;-94
2023/07/27 10:05:38;;;;;;;2.78;1.50;;;24.80;1.00;;;;;;6216957;23;20227;-93
2023/07/27 10:08:05;;;;;;;1.40;1.30;;;24.80;1.00;;;;;;6216410;23;20165;-94
2023/07/27 10:10:42;;;;;;;3.13;1.50;;;25.00;1.00;;;;;;6217082;23;20173;-94
2023/07/27 10:13:13;;;;;;;2.20;1.48;;;25.10;1.00;;;;;;6216828;23;20157;-94
2023/07/27 10:15:43;;;;;;;1.92;1.50;;;25.20;1.00;;;;;;6216749;23;20239;-94
2023/07/27 10:18:13;;;;;;;2.08;1.60;;;25.30;1.00;;;;;;6216988;23;20169;-93
2023/07/27 10:20:40;;;;;;;4.22;1.58;;;25.40;1.00;;;;;;6216627;23;20154;-94
2023/07/27 10:23:12;;;;;;;4.00;1.65;;;25.40;1.00;;;;;;6216413;23;20228;-94
2023/07/27 10:26:04;;;;;;;2.55;1.60;;;25.30;1.00;;;;;;6217101;23;20213;-94
2023/07/27 10:28:38;;;;;;;2.50;1.80;;;25.30;1.00;;;;;;6200107;23;20173;-95
2023/07/27 10:31:22;;;;;;;2.92;1.85;;;25.40;1.00;;;;;;6217390;23;20159;-94
2023/07/27 10:33:53;;;;;;;2.80;1.75;;;25.30;1.00;;;;;;6218688;23;20161;-94
2023/07/27 10:36:23;;;;;;;4.18;1.80;;;25.40;1.00;;;;;;6218409;23;20614;-93
2023/07/27 10:38:53;;;;;;;3.45;1.75;;;25.50;1.00;;;;;;6218699;23;20492;-94
2023/07/27 10:41:22;;;;;;;4.25;2.00;;;25.70;1.00;;;;;;6217942;23;20741;-93
2023/07/27 10:44:17;;;;;;;2.85;1.80;;;25.80;1.00;;;;;;6218378;23;20616;-94
2023/07/27 10:46:48;;;;;;;4.53;1.92;;;25.80;1.00;;;;;;6218468;23;20180;-94
2023/07/27 10:49:17;;;;;;;3.05;2.00;;;25.80;1.00;;;;;;6218353;23;20169;-94
2023/07/27 10:51:45;;;;;;;2.97;1.90;;;26.00;1.00;;;;;;6218567;23;20180;-93
2023/07/27 10:54:13;;;;;;;2.55;1.90;;;26.20;1.00;;;;;;6218472;23;20173;-95
2023/07/27 10:56:42;;;;;;;4.18;2.05;;;26.40;1.00;;;;;;6218508;23;20169;-94
2023/07/27 10:59:12;;;;;;;3.60;2.20;;;26.50;1.00;;;;;;6218146;23;20164;-95
2023/07/27 11:01:39;;;;;;;3.13;2.10;;;26.40;1.00;;;;;;6218530;23;20181;-95
2023/07/27 11:04:08;;;;;;;5.07;1.80;;;26.40;1.00;;;;;;6218383;23;20256;-94
2023/07/27 11:06:42;;;;;;;3.13;2.05;;;26.60;1.00;;;;;;6218399;23;20621;-95
2023/07/27 11:09:18;;;;;;;2.60;2.10;;;26.70;1.00;;;;;;6218263;23;20148;-94
2023/07/27 11:11:45;;;;;;;4.35;2.00;;;26.90;1.00;;;;;;6218110;23;20207;-94
2023/07/27 11:14:12;;;;;;;5.03;2.10;;;27.00;1.00;;;;;;6218517;23;20203;-94
2023/07/27 11:16:39;;;;;;;11.07;5.53;;;27.00;1.00;;;;;;6217959;23;20172;-94
2023/07/27 11:19:10;;;;;;;2.55;1.75;;;27.00;1.00;;;;;;6218718;23;20252;-95
2023/07/27 11:21:40;;;;;;;3.92;2.20;;;27.10;1.00;;;;;;6218046;23;20563;-94
2023/07/27 11:24:08;;;;;;;3.80;1.98;;;27.20;1.00;;;;;;6218399;23;20173;-94
2023/07/27 11:26:36;;;;;;;4.70;2.50;;;27.40;1.00;;;;;;6217793;23;20167;-94
2023/07/27 11:29:03;;;;;;;4.10;2.50;;;27.60;1.00;;;;;;6218299;23;20179;-94
2023/07/27 11:31:30;;;;;;;3.35;2.42;;;27.60;99.90;;;;;;6218112;23;20169;-94
2023/07/27 11:34:00;;;;;;;3.47;2.17;;;27.60;99.90;;;;;;6218060;23;20172;-94
2023/07/27 11:36:32;;;;;;;3.40;2.05;;;27.60;99.90;;;;;;6217880;23;20168;-94
2023/07/27 11:39:00;;;;;;;3.22;2.50;;;27.60;99.90;;;;;;6218181;23;20191;-93
2023/07/27 11:41:29;;;;;;;4.18;1.98;;;27.60;99.90;;;;;;6217742;23;20189;-95
2023/07/27 11:43:58;;;;;;;4.22;2.30;;;27.60;99.90;;;;;;6218315;23;20175;-95
2023/07/27 11:46:26;;;;;;;3.00;2.30;;;27.40;99.90;;;;;;6217672;23;20651;-95
2023/07/27 11:48:53;;;;;;;2.70;2.20;;;27.30;99.90;;;;;;6218234;23;20204;-95
2023/07/27 11:51:20;;;;;;;3.95;2.28;;;27.40;99.90;;;;;;6218369;23;20169;-94
2023/07/27 11:53:48;;;;;;;2.83;2.10;;;27.40;99.90;;;;;;6218221;23;20168;-94
2023/07/27 11:56:15;;;;;;;2.70;2.30;;;27.50;99.90;;;;;;6218048;23;20608;-94
2023/07/27 11:58:43;;;;;;;3.83;2.38;;;27.70;99.90;;;;;;6217693;23;20161;-94
2023/07/27 12:01:11;;;;;;;3.90;2.35;;;27.70;99.90;;;;;;6217276;23;20172;-94
2023/07/27 12:03:39;;;;;;;2.88;2.28;;;27.70;99.90;;;;;;6217531;23;20169;-95
2023/07/27 12:06:07;;;;;;;5.40;2.30;;;27.70;99.90;;;;;;6217573;23;20215;-94
2023/07/27 12:08:37;;;;;;;4.20;2.40;;;27.70;99.90;;;;;;6217707;23;20227;-95
2023/07/27 12:11:06;;;;;;;3.47;2.55;;;27.70;99.90;;;;;;6217876;23;20161;-95
2023/07/27 12:13:35;;;;;;;4.10;2.30;;;27.80;99.90;;;;;;6217831;23;20177;-94
2023/07/27 12:16:04;;;;;;;2.97;2.33;;;27.80;99.90;;;;;;6217487;23;20169;-93
2023/07/27 12:18:32;;;;;;;5.00;2.60;;;27.80;99.90;;;;;;6217811;23;20191;-95
2023/07/27 12:20:59;;;;;;;4.35;2.47;;;27.80;99.90;;;;;;6217621;23;20173;-95
2023/07/27 12:23:27;;;;;;;6.10;2.50;;;27.60;99.90;;;;;;6217292;23;20175;-95
2023/07/27 12:25:54;;;;;;;2.47;2.08;;;27.50;99.90;;;;;;6217807;23;20193;-95
2023/07/27 12:28:23;;;;;;;3.40;2.50;;;27.40;99.90;;;;;;6217687;23;20169;-94
2023/07/27 12:30:50;;;;;;;3.22;2.17;;;27.40;99.90;;;;;;6217240;23;20167;-94
2023/07/27 12:33:16;;;;;;;3.75;2.45;;;27.50;99.90;;;;;;6217419;23;20484;-95
2023/07/27 12:35:43;;;;;;;4.82;2.17;;;27.70;99.90;;;;;;6217714;23;20169;-94
2023/07/27 12:38:10;;;;;;;4.70;2.70;;;27.90;99.90;;;;;;6217617;23;20172;-95
2023/07/27 12:40:37;;;;;;;3.83;2.53;;;28.40;99.90;;;;;;6217582;23;20175;-96
2023/07/27 12:43:04;;;;;;;2.90;2.25;;;28.80;99.90;;;;;;6187204;23;20207;-94
2023/07/27 12:45:32;;;;;;;5.10;2.92;;;28.80;99.90;;;;;;6186895;23;20185;-94
2023/07/27 12:47:59;;;;;;;4.43;2.55;;;28.90;99.90;;;;;;6187177;23;20208;-96
2023/07/27 12:50:26;;;;;;;3.80;2.20;;;28.80;99.90;;;;;;6187333;23;20192;-95
2023/07/27 12:52:53;;;;;;;6.00;2.50;;;28.80;99.90;;;;;;6187191;23;20244;-95
2023/07/27 12:55:20;;;;;;;3.10;2.30;;;28.60;99.90;;;;;;6187226;23;20165;-95
2023/07/27 12:57:47;;;;;;;3.13;2.30;;;28.50;99.90;;;;;;6187527;23;20197;-95